TimePST,TemperatureF,Dew PointF,Humidity,Sea Level PressureIn,VisibilityMPH,Wind Direction,Wind SpeedMPH,Gust SpeedMPH,PrecipitationIn,Events,Conditions,WindDirDegrees,DateUTC
12:56 AM,21.9,15.1,75,30.27,10.0,ENE,3.5,-,N/A,,Clear,60,2013-02-27 08:56:00
1:56 AM,23.0,15.1,72,30.27,10.0,East,3.5,-,N/A,,Clear,100,2013-02-27 09:56:00
2:56 AM,19.0,14.0,81,30.26,10.0,Calm,Calm,-,N/A,,Clear,0,2013-02-27 10:56:00
4:56 AM,23.0,16.0,74,30.28,10.0,Calm,Calm,-,N/A,,Clear,0,2013-02-27 12:56:00
5:56 AM,24.1,17.1,75,30.29,10.0,SE,3.5,-,N/A,,Clear,130,2013-02-27 13:56:00
6:56 AM,23.0,17.1,78,30.30,10.0,NE,3.5,-,N/A,,Clear,50,2013-02-27 14:56:00
7:56 AM,28.9,19.9,69,30.31,10.0,NE,3.5,-,N/A,,Mostly Cloudy,50,2013-02-27 15:56:00
8:56 AM,35.1,21.0,57,30.32,10.0,ESE,6.9,-,N/A,,Overcast,110,2013-02-27 16:56:00
9:56 AM,39.0,19.9,46,30.32,10.0,Calm,Calm,-,N/A,,Overcast,0,2013-02-27 17:56:00
10:56 AM,42.1,18.0,38,30.27,10.0,South,5.8,-,N/A,,Overcast,190,2013-02-27 18:56:00
11:56 AM,46.9,26.1,44,30.25,10.0,SW,9.2,-,N/A,,Mostly Cloudy,220,2013-02-27 19:56:00
12:56 PM,50.0,26.1,39,30.23,10.0,Variable,4.6,-,N/A,,Overcast,0,2013-02-27 20:56:00
1:56 PM,48.9,28.9,46,30.23,10.0,SSW,10.4,-,N/A,,Overcast,200,2013-02-27 21:56:00
2:56 PM,48.9,30.0,48,30.23,10.0,SW,8.1,-,N/A,,Overcast,220,2013-02-27 22:56:00
3:56 PM,48.9,26.1,41,30.23,10.0,NNW,10.4,-,N/A,,Overcast,330,2013-02-27 23:56:00
4:56 PM,46.9,30.0,52,30.23,10.0,North,3.5,-,N/A,,Overcast,350,2013-02-28 00:56:00
6:56 PM,42.1,30.9,65,30.24,10.0,Calm,Calm,-,N/A,,Overcast,0,2013-02-28 02:56:00
8:56 PM,42.1,27.0,55,30.23,10.0,SW,4.6,-,N/A,,Overcast,220,2013-02-28 04:56:00
10:56 PM,43.0,27.0,53,30.26,10.0,South,6.9,-,N/A,,Overcast,190,2013-02-28 06:56:00
11:56 PM,43.0,27.0,53,30.24,10.0,SSE,9.2,-,N/A,,Mostly Cloudy,160,2013-02-28 07:56:00